Time;durP1;ratioP1;P1;durP2;ratioP2;P2;SDS_P1;SDS_P2;PMS_P1;PMS_P2;Temp;Humidity;BMP_temperature;BMP_pressure;BME280_temperature;BME280_humidity;BME280_pressure;Samples;Min_cycle;Max_cycle;Signal;HPM_P1;HPM_P2
2021/06/05 00:01:26;;;;;;;13.73;6.82;;;16.40;97.40;;;;;;5136346;28;20023;-82
2021/06/05 00:03:54;;;;;;;14.45;7.10;;;16.50;97.30;;;;;;5137273;28;20034;-81
2021/06/05 00:06:21;;;;;;;10.77;7.07;;;16.60;97.10;;;;;;5137742;28;20393;-82
2021/06/05 00:08:47;;;;;;;13.90;6.68;;;16.40;97.10;;;;;;5138781;28;20426;-81
2021/06/05 00:11:15;;;;;;;11.63;6.35;;;16.40;97.10;;;;;;5140162;28;20015;-81
2021/06/05 00:13:44;;;;;;;12.75;6.72;;;16.40;97.30;;;;;;5139072;28;20130;-81
2021/06/05 00:16:16;;;;;;;10.77;6.82;;;16.30;97.00;;;;;;5140137;27;20028;-81
2021/06/05 00:18:43;;;;;;;12.10;7.07;;;16.50;97.40;;;;;;5136008;28;20039;-80
2021/06/05 00:21:09;;;;;;;12.15;7.00;;;16.50;97.00;;;;;;5138969;27;20044;-81
2021/06/05 00:23:35;;;;;;;13.57;7.25;;;16.50;96.90;;;;;;5137524;28;20016;-81
2021/06/05 00:26:02;;;;;;;11.77;7.00;;;16.50;97.20;;;;;;5138785;27;20089;-82
2021/06/05 00:28:28;;;;;;;11.23;7.20;;;16.50;96.90;;;;;;5137184;28;20031;-81
2021/06/05 00:30:54;;;;;;;10.73;7.35;;;16.40;97.20;;;;;;5137300;28;20373;-82
2021/06/05 00:33:20;;;;;;;13.73;7.63;;;16.40;97.00;;;;;;5136553;28;20178;-82
2021/06/05 00:35:46;;;;;;;11.18;7.95;;;16.20;97.30;;;;;;5136810;28;20102;-80
2021/06/05 00:38:13;;;;;;;15.60;8.63;;;16.30;97.70;;;;;;5139007;27;20047;-82
2021/06/05 00:40:46;;;;;;;11.95;7.78;;;16.40;97.60;;;;;;5138255;27;20019;-80
2021/06/05 00:43:15;;;;;;;11.32;7.55;;;16.30;97.30;;;;;;5138253;27;20042;-82
2021/06/05 00:45:44;;;;;;;14.80;8.43;;;16.40;97.20;;;;;;5136572;28;20023;-80
2021/06/05 00:48:10;;;;;;;13.25;8.07;;;16.50;97.30;;;;;;5137721;27;20015;-83
2021/06/05 00:50:42;;;;;;;11.52;8.05;;;16.40;97.20;;;;;;5136802;28;20473;-80
2021/06/05 00:53:09;;;;;;;11.43;8.20;;;16.40;97.30;;;;;;5137615;28;20019;-81
2021/06/05 00:55:40;;;;;;;11.68;7.47;;;16.30;97.60;;;;;;5137427;27;20346;-81
2021/06/05 00:58:06;;;;;;;13.45;8.50;;;16.30;98.10;;;;;;5136965;27;20053;-82
2021/06/05 01:00:32;;;;;;;11.77;7.53;;;16.40;97.50;;;;;;5138892;27;20477;-82
2021/06/05 01:03:00;;;;;;;14.73;8.45;;;16.20;97.60;;;;;;5140236;27;20019;-81
2021/06/05 01:05:26;;;;;;;15.50;9.25;;;16.20;97.90;;;;;;5143621;27;20047;-83
2021/06/05 01:07:55;;;;;;;15.43;8.80;;;16.20;98.30;;;;;;5140744;27;20030;-81
2021/06/05 01:10:28;;;;;;;14.82;9.13;;;16.20;98.70;;;;;;5141600;27;20019;-82
2021/06/05 01:12:58;;;;;;;15.30;9.35;;;16.10;98.80;;;;;;5142371;27;20058;-82
2021/06/05 01:15:32;;;;;;;16.88;9.32;;;16.10;99.20;;;;;;5141042;27;20046;-81
2021/06/05 01:18:03;;;;;;;19.05;9.27;;;16.10;99.70;;;;;;5141914;27;20019;-81
2021/06/05 01:20:49;;;;;;;19.52;9.73;;;16.10;99.70;;;;;;5140532;27;20242;-83
2021/06/05 01:23:18;;;;;;;17.88;9.10;;;16.10;99.80;;;;;;5141776;27;20023;-80
2021/06/05 01:26:07;;;;;;;17.23;9.57;;;16.10;99.90;;;;;;5140205;27;20040;-81
2021/06/05 01:28:58;;;;;;;23.83;11.32;;;16.10;99.90;;;;;;5140076;27;20025;-82
2021/06/05 01:31:34;;;;;;;20.63;11.02;;;16.00;99.90;;;;;;5143033;27;20019;-80
2021/06/05 01:34:01;;;;;;;18.20;11.02;;;16.00;99.90;;;;;;5146695;27;20023;-82
2021/06/05 01:36:27;;;;;;;17.30;11.77;;;15.90;99.90;;;;;;5141558;27;20030;-81
2021/06/05 01:38:57;;;;;;;23.75;12.75;;;15.70;99.90;;;;;;5142340;27;20015;-81
2021/06/05 01:41:24;;;;;;;20.33;12.35;;;15.80;99.90;;;;;;5141375;27;20119;-81
2021/06/05 01:43:52;;;;;;;18.38;12.13;;;15.70;99.90;;;;;;5144010;27;20077;-81
2021/06/05 01:46:22;;;;;;;18.38;12.35;;;15.70;99.90;;;;;;5145712;27;20019;-79
2021/06/05 01:48:48;;;;;;;21.73;11.95;;;15.80;99.90;;;;;;5143726;27;20024;-81
2021/06/05 01:51:18;;;;;;;15.55;11.07;;;15.60;99.90;;;;;;5142529;27;20027;-81
2021/06/05 01:53:55;;;;;;;15.23;10.07;;;15.50;99.90;;;;;;5142148;27;20023;-81
2021/06/05 01:56:29;;;;;;;16.67;9.55;;;15.50;99.90;;;;;;5139838;27;20480;-81
2021/06/05 01:58:59;;;;;;;14.52;9.23;;;15.50;99.90;;;;;;5139192;27;20062;-82
2021/06/05 02:01:25;;;;;;;13.48;9.52;;;15.50;99.90;;;;;;5139297;27;20027;-82
2021/06/05 02:03:51;;;;;;;15.07;9.05;;;15.60;99.90;;;;;;5140071;27;20022;-81
2021/06/05 02:06:19;;;;;;;15.45;8.65;;;15.50;99.90;;;;;;5140598;27;20051;-80
2021/06/05 02:08:44;;;;;;;12.48;8.52;;;15.60;99.90;;;;;;5139072;27;20477;-82
2021/06/05 02:11:16;;;;;;;13.20;8.45;;;15.50;99.90;;;;;;5138897;27;20015;-82
2021/06/05 02:13:50;;;;;;;13.68;7.45;;;15.50;99.90;;;;;;5141557;27;20038;-80
2021/06/05 02:16:44;;;;;;;13.77;7.60;;;15.50;99.90;;;;;;5141566;27;20023;-80
2021/06/05 02:19:27;;;;;;;16.63;7.90;;;15.50;99.90;;;;;;5134708;27;20031;-81
2021/06/05 02:21:57;;;;;;;19.15;8.73;;;15.40;99.90;;;;;;5138008;27;20023;-81
2021/06/05 02:24:35;;;;;;;19.10;8.32;;;15.40;99.90;;;;;;5140859;27;20042;-81
2021/06/05 02:27:01;;;;;;;15.45;8.38;;;15.50;99.90;;;;;;5138377;27;20054;-81
2021/06/05 02:29:32;;;;;;;16.05;8.15;;;15.40;99.90;;;;;;5138639;27;20011;-81
2021/06/05 02:31:59;;;;;;;13.35;7.75;;;15.40;99.90;;;;;;5138546;27;20443;-80
2021/06/05 02:34:29;;;;;;;14.00;7.55;;;15.40;99.90;;;;;;5138999;27;20113;-81
2021/06/05 02:37:00;;;;;;;13.23;7.82;;;15.40;99.90;;;;;;5138654;27;20023;-81
2021/06/05 02:39:27;;;;;;;12.20;7.72;;;15.40;99.90;;;;;;5138530;27;20129;-82
2021/06/05 02:41:54;;;;;;;12.18;7.55;;;15.40;99.90;;;;;;5138735;27;20023;-82
2021/06/05 02:44:25;;;;;;;17.42;7.95;;;15.40;99.90;;;;;;5138451;27;20031;-81
2021/06/05 02:46:52;;;;;;;13.43;8.38;;;15.40;99.90;;;;;;5140458;27;20027;-82
2021/06/05 02:49:18;;;;;;;12.63;8.13;;;15.30;99.90;;;;;;5140415;27;20370;-81
2021/06/05 02:52:02;;;;;;;20.42;8.65;;;15.20;99.90;;;;;;5139149;27;20026;-81
2021/06/05 02:54:29;;;;;;;20.55;8.85;;;15.30;99.90;;;;;;5139580;27;20023;-80
2021/06/05 02:56:58;;;;;;;17.48;8.63;;;15.30;99.90;;;;;;5139399;27;20098;-81
2021/06/05 02:59:25;;;;;;;17.23;8.88;;;15.30;99.90;;;;;;5138622;27;20388;-79
2021/06/05 03:01:52;;;;;;;17.75;9.18;;;15.20;99.90;;;;;;5139437;27;20031;-83
2021/06/05 03:04:19;;;;;;;13.75;8.75;;;15.30;99.90;;;;;;5138239;27;20015;-79
2021/06/05 03:06:45;;;;;;;14.65;9.73;;;15.20;99.90;;;;;;5136149;27;20125;-89
2021/06/05 03:09:15;;;;;;;15.35;9.20;;;15.30;99.90;;;;;;5136740;27;20110;-79
2021/06/05 03:11:42;;;;;;;13.07;8.80;;;15.30;99.90;;;;;;5136339;27;20031;-81
2021/06/05 03:14:08;;;;;;;17.63;8.90;;;15.20;99.90;;;;;;5135621;27;20023;-80
2021/06/05 03:16:34;;;;;;;13.25;9.52;;;15.20;99.90;;;;;;5137507;27;20027;-80
2021/06/05 03:19:00;;;;;;;18.00;8.65;;;15.20;99.90;;;;;;5138501;27;20349;-82
2021/06/05 03:21:26;;;;;;;13.25;8.77;;;15.20;99.90;;;;;;5137484;27;20023;-81
2021/06/05 03:23:52;;;;;;;17.38;8.93;;;15.30;99.90;;;;;;5139090;27;20023;-83
2021/06/05 03:26:19;;;;;;;18.50;8.98;;;15.30;99.90;;;;;;5137170;27;20054;-82
2021/06/05 03:28:46;;;;;;;17.92;9.60;;;15.30;99.90;;;;;;5137606;27;20468;-82
2021/06/05 03:31:13;;;;;;;17.75;10.35;;;15.40;99.90;;;;;;5139031;27;20496;-80
2021/06/05 03:33:39;;;;;;;18.63;10.98;;;15.30;99.90;;;;;;5139273;27;20019;-82
2021/06/05 03:36:07;;;;;;;19.48;11.35;;;15.40;99.90;;;;;;5139395;27;20107;-82
2021/06/05 03:38:33;;;;;;;28.65;20.63;;;15.40;99.90;;;;;;5137423;27;20030;-80
2021/06/05 03:41:00;;;;;;;34.70;22.13;;;15.50;99.90;;;;;;5137027;27;20058;-79
2021/06/05 03:43:26;;;;;;;33.05;20.65;;;15.50;99.90;;;;;;5137056;27;20065;-81
2021/06/05 03:45:52;;;;;;;28.92;17.08;;;15.50;99.90;;;;;;5136805;27;20055;-82
2021/06/05 03:48:19;;;;;;;29.10;17.40;;;15.60;99.90;;;;;;5137716;27;20022;-79
2021/06/05 03:50:49;;;;;;;29.27;17.88;;;15.60;99.90;;;;;;5137744;27;20019;-82
2021/06/05 03:53:17;;;;;;;28.90;20.30;;;15.70;99.90;;;;;;5136550;27;20026;-80
2021/06/05 03:55:43;;;;;;;32.83;24.17;;;15.80;99.90;;;;;;5137098;27;20024;-79
2021/06/05 03:58:10;;;;;;;39.53;27.73;;;15.90;99.90;;;;;;5138317;27;20022;-81
2021/06/05 04:00:40;;;;;;;39.13;32.40;;;15.90;99.90;;;;;;5137276;28;20027;-79
2021/06/05 04:03:06;;;;;;;36.70;25.42;;;16.00;99.90;;;;;;5137070;28;20029;-82
2021/06/05 04:05:33;;;;;;;29.35;14.00;;;16.00;99.90;;;;;;5138360;27;20512;-80
2021/06/05 04:07:59;;;;;;;19.85;10.32;;;16.00;99.90;;;;;;5137345;28;20026;-82
2021/06/05 04:10:27;;;;;;;26.17;16.92;;;16.00;99.90;;;;;;5137250;28;20023;-80
2021/06/05 04:12:54;;;;;;;18.58;9.88;;;15.80;99.90;;;;;;5137089;27;20019;-81
2021/06/05 04:15:24;;;;;;;19.20;9.57;;;15.80;99.90;;;;;;5137202;28;20027;-82
2021/06/05 04:18:03;;;;;;;19.98;8.75;;;15.70;99.90;;;;;;5138802;27;20377;-79
2021/06/05 04:20:30;;;;;;;13.80;8.05;;;15.50;99.90;;;;;;5137571;28;20031;-82
2021/06/05 04:22:56;;;;;;;15.45;8.43;;;15.40;99.90;;;;;;5136567;28;20496;-82
2021/06/05 04:25:23;;;;;;;13.90;8.50;;;15.30;99.90;;;;;;5136967;27;20047;-81
2021/06/05 04:27:50;;;;;;;10.23;7.85;;;15.30;99.90;;;;;;5137244;28;20434;-82
2021/06/05 04:30:18;;;;;;;14.43;8.70;;;15.30;99.90;;;;;;5138090;27;20419;-82
2021/06/05 04:32:45;;;;;;;12.60;8.68;;;15.40;99.90;;;;;;5137848;27;20520;-80
2021/06/05 04:35:12;;;;;;;16.33;8.68;;;15.50;99.90;;;;;;5139401;27;20025;-82
2021/06/05 04:37:38;;;;;;;12.73;7.90;;;15.50;99.90;;;;;;5141479;27;20110;-81
2021/06/05 04:40:05;;;;;;;13.73;8.20;;;15.40;99.90;;;;;;5142689;27;20068;-82
2021/06/05 04:42:31;;;;;;;14.55;8.65;;;15.40;99.90;;;;;;5141336;27;20027;-81
2021/06/05 04:44:57;;;;;;;15.00;8.38;;;15.70;99.90;;;;;;5140833;27;20026;-82
2021/06/05 04:47:23;;;;;;;11.48;8.10;;;15.80;99.90;;;;;;5140800;27;20023;-81
2021/06/05 04:49:49;;;;;;;11.88;8.02;;;15.90;99.70;;;;;;5142041;27;20016;-81
2021/06/05 04:52:15;;;;;;;12.43;7.30;;;16.10;99.90;;;;;;5140065;27;20019;-80
2021/06/05 04:54:41;;;;;;;8.77;7.13;;;16.20;99.40;;;;;;5141122;27;20051;-83
2021/06/05 04:57:07;;;;;;;10.15;7.18;;;16.30;99.10;;;;;;5139683;27;20027;-81
2021/06/05 04:59:33;;;;;;;14.43;8.23;;;16.40;99.20;;;;;;5141163;27;20080;-80
2021/06/05 05:01:59;;;;;;;13.18;7.95;;;16.30;99.30;;;;;;5141605;27;20019;-82
2021/06/05 05:04:25;;;;;;;13.07;7.35;;;;;;;;;;5139926;27;20022;-81
2021/06/05 05:06:51;;;;;;;15.50;7.60;;;16.50;99.60;;;;;;5141364;27;20031;-81
2021/06/05 05:09:17;;;;;;;15.43;8.32;;;16.70;99.50;;;;;;5141545;27;20019;-80
2021/06/05 05:11:44;;;;;;;14.80;10.95;;;16.90;99.70;;;;;;5141638;27;20067;-80
2021/06/05 05:14:11;;;;;;;19.35;9.18;;;16.90;99.40;;;;;;5139784;27;20019;-81
2021/06/05 05:16:38;;;;;;;13.30;9.88;;;17.10;99.40;;;;;;5141479;27;20076;-81
2021/06/05 05:19:04;;;;;;;14.70;10.88;;;17.20;99.10;;;;;;5140387;27;20384;-80
2021/06/05 05:21:31;;;;;;;17.23;11.75;;;17.20;98.80;;;;;;5140031;27;20480;-81
2021/06/05 05:23:57;;;;;;;18.25;16.33;;;17.40;98.50;;;;;;5140028;27;20023;-81
2021/06/05 05:26:24;;;;;;;19.08;11.43;;;17.30;98.10;;;;;;5139286;27;20106;-80
2021/06/05 05:28:54;;;;;;;13.88;9.57;;;17.60;98.30;;;;;;5140066;27;20526;-80
2021/06/05 05:31:23;;;;;;;12.13;8.35;;;17.70;98.30;;;;;;5138853;27;20042;-81
2021/06/05 05:33:50;;;;;;;14.43;8.35;;;17.60;98.90;;;;;;5140179;27;20030;-81
2021/06/05 05:36:23;;;;;;;12.63;8.30;;;17.80;98.10;;;;;;5140245;27;20042;-80
2021/06/05 05:38:50;;;;;;;12.27;9.77;;;18.10;98.30;;;;;;5141507;27;20031;-82
2021/06/05 05:41:18;;;;;;;12.95;8.75;;;18.20;98.40;;;;;;5141301;27;20024;-83
2021/06/05 05:43:45;;;;;;;12.82;8.35;;;18.20;98.60;;;;;;5141764;27;20027;-82
2021/06/05 05:46:11;;;;;;;16.33;8.10;;;18.40;98.20;;;;;;5142057;27;20019;-81
2021/06/05 05:48:38;;;;;;;12.10;8.13;;;18.60;97.80;;;;;;5142222;27;20030;-81
2021/06/05 05:51:08;;;;;;;13.15;7.60;;;18.70;97.70;;;;;;5139773;27;20019;-82
2021/06/05 05:53:36;;;;;;;9.60;6.97;;;18.70;97.10;;;;;;5142686;27;20106;-82
2021/06/05 05:56:04;;;;;;;14.68;7.35;;;18.80;96.60;;;;;;5140354;27;20468;-81
2021/06/05 05:58:30;;;;;;;11.57;6.97;;;19.10;97.30;;;;;;5139494;27;20037;-80
2021/06/05 06:00:56;;;;;;;11.93;7.32;;;19.30;95.90;;;;;;5139782;27;20500;-80
2021/06/05 06:03:22;;;;;;;11.38;6.80;;;19.30;95.90;;;;;;5138509;27;20023;-80
2021/06/05 06:05:49;;;;;;;12.32;6.78;;;19.50;96.40;;;;;;5138653;27;20380;-79
2021/06/05 06:08:17;;;;;;;9.48;6.28;;;19.80;95.40;;;;;;5140290;27;20019;-81
2021/06/05 06:10:44;;;;;;;11.95;6.88;;;20.00;95.70;;;;;;5140793;27;20491;-80
2021/06/05 06:13:10;;;;;;;10.30;6.05;;;20.10;95.10;;;;;;5138744;27;20023;-80
2021/06/05 06:15:37;;;;;;;10.10;5.38;;;20.20;94.90;;;;;;5139180;27;20015;-82
2021/06/05 06:18:05;;;;;;;11.10;5.45;;;20.40;94.40;;;;;;5140579;27;20536;-82
2021/06/05 06:20:35;;;;;;;8.93;5.35;;;20.60;94.30;;;;;;5138000;27;20493;-82
2021/06/05 06:23:02;;;;;;;6.78;4.80;;;20.80;93.20;;;;;;5137778;27;20076;-81
2021/06/05 06:25:31;;;;;;;9.20;4.70;;;21.10;92.50;;;;;;5138442;27;20047;-81
2021/06/05 06:27:58;;;;;;;8.10;4.82;;;21.20;92.90;;;;;;5137910;27;20019;-84
2021/06/05 06:30:30;;;;;;;6.90;4.60;;;21.30;91.90;;;;;;5140485;27;20016;-81
2021/06/05 06:32:56;;;;;;;11.73;4.78;;;21.50;89.80;;;;;;5141176;27;20418;-83
2021/06/05 06:35:24;;;;;;;8.88;4.63;;;21.70;89.20;;;;;;5141159;27;20023;-81
2021/06/05 06:37:51;;;;;;;9.23;4.85;;;21.80;90.70;;;;;;5141142;27;20473;-80
2021/06/05 06:40:20;;;;;;;9.77;4.88;;;21.90;90.40;;;;;;5143333;27;20023;-81
2021/06/05 06:42:46;;;;;;;8.20;4.40;;;22.10;89.90;;;;;;5142448;27;20083;-81
2021/06/05 06:45:13;;;;;;;9.10;5.13;;;22.10;89.30;;;;;;5140338;27;20418;-82
2021/06/05 06:47:40;;;;;;;12.40;4.43;;;22.00;87.70;;;;;;5136234;27;20094;-83
2021/06/05 06:50:07;;;;;;;9.90;4.60;;;22.30;88.90;;;;;;5143332;27;20025;-82
2021/06/05 06:52:33;;;;;;;8.20;4.85;;;22.30;89.40;;;;;;5138355;27;20023;-82
2021/06/05 06:54:59;;;;;;;13.45;4.68;;;22.40;89.00;;;;;;5135880;27;20128;-82
2021/06/05 06:57:25;;;;;;;9.73;4.60;;;22.50;88.10;;;;;;5135259;27;20026;-83
2021/06/05 06:59:51;;;;;;;9.25;4.70;;;22.60;87.70;;;;;;5140739;27;20050;-81
2021/06/05 07:02:17;;;;;;;9.70;4.47;;;22.80;88.10;;;;;;5138595;27;20084;-79
2021/06/05 07:04:43;;;;;;;10.88;4.90;;;23.00;86.70;;;;;;5137647;27;20049;-81
2021/06/05 07:07:10;;;;;;;13.60;5.00;;;23.20;85.00;;;;;;5140185;27;20072;-80
2021/06/05 07:09:37;;;;;;;9.32;4.43;;;23.40;86.90;;;;;;5139756;27;20360;-77
2021/06/05 07:12:07;;;;;;;11.57;5.40;;;23.40;84.10;;;;;;5139104;27;20028;-79
2021/06/05 07:14:33;;;;;;;7.97;4.72;;;23.50;83.40;;;;;;5139597;27;20024;-76
2021/06/05 07:17:00;;;;;;;10.60;5.43;;;23.70;84.90;;;;;;5136029;27;20115;-77
2021/06/05 07:19:26;;;;;;;10.60;5.55;;;23.90;82.90;;;;;;5138054;27;20515;-78
2021/06/05 07:21:53;;;;;;;9.80;5.20;;;24.10;84.60;;;;;;5138997;27;20011;-76
2021/06/05 07:24:19;;;;;;;11.93;5.55;;;24.20;83.90;;;;;;5138261;27;20481;-76
2021/06/05 07:26:46;;;;;;;24.85;7.22;;;24.40;84.20;;;;;;5138555;27;20027;-78
2021/06/05 07:29:12;;;;;;;11.85;6.65;;;24.50;81.50;;;;;;5139128;27;20025;-77
2021/06/05 07:31:51;;;;;;;12.15;7.72;;;24.50;81.50;;;;;;5136646;27;20368;-76
2021/06/05 07:34:26;;;;;;;15.52;7.25;;;24.80;79.50;;;;;;5138137;27;20043;-76
2021/06/05 07:36:55;;;;;;;11.10;6.15;;;24.90;78.60;;;;;;5138243;27;20042;-77
2021/06/05 07:39:24;;;;;;;11.13;6.10;;;25.10;78.80;;;;;;5137400;27;20491;-78
2021/06/05 07:41:52;;;;;;;12.18;6.05;;;24.90;79.20;;;;;;5138314;27;20023;-81
2021/06/05 07:44:20;;;;;;;10.20;5.88;;;25.10;77.90;;;;;;5137922;27;20027;-77
2021/06/05 07:46:50;;;;;;;12.20;6.15;;;25.20;76.60;;;;;;5137700;27;20022;-77
2021/06/05 07:49:17;;;;;;;14.38;6.05;;;25.50;79.50;;;;;;5137700;27;20023;-76
2021/06/05 07:51:43;;;;;;;19.58;6.63;;;25.80;74.20;;;;;;5136284;27;20407;-75
2021/06/05 07:54:10;;;;;;;12.07;5.55;;;26.00;71.40;;;;;;5136007;27;20042;-76
2021/06/05 07:56:37;;;;;;;13.82;8.63;;;26.00;75.40;;;;;;5135632;27;20113;-77
2021/06/05 07:59:03;;;;;;;12.57;6.05;;;26.10;69.60;;;;;;5136380;27;20033;-77
2021/06/05 08:01:29;;;;;;;10.05;5.32;;;26.10;69.40;;;;;;5137599;27;20082;-77
2021/06/05 08:03:55;;;;;;;11.10;5.93;;;26.30;70.80;;;;;;5136989;28;20047;-77
2021/06/05 08:06:21;;;;;;;13.30;7.40;;;26.40;69.80;;;;;;5136911;28;20031;-78
2021/06/05 08:08:48;;;;;;;13.27;6.10;;;26.50;66.20;;;;;;5137664;27;20019;-77
2021/06/05 08:11:17;;;;;;;11.38;4.65;;;26.60;69.00;;;;;;5138937;27;20072;-79
2021/06/05 08:13:44;;;;;;;8.43;4.47;;;26.90;65.30;;;;;;5140126;27;20015;-78
2021/06/05 08:16:10;;;;;;;10.05;4.30;;;27.00;67.80;;;;;;5139525;27;20026;-78
2021/06/05 08:18:37;;;;;;;10.20;4.07;;;26.90;62.00;;;;;;5140243;27;20028;-77
2021/06/05 08:21:08;;;;;;;7.03;3.30;;;27.10;62.60;;;;;;5141088;27;20072;-78
2021/06/05 08:23:35;;;;;;;4.68;3.25;;;27.20;64.50;;;;;;5140036;27;20031;-82
2021/06/05 08:26:03;;;;;;;6.85;3.53;;;27.40;66.00;;;;;;5139621;27;20057;-76
2021/06/05 08:28:30;;;;;;;5.13;3.00;;;27.60;66.80;;;;;;5138743;27;20012;-76
2021/06/05 08:31:00;;;;;;;9.13;3.33;;;27.80;63.90;;;;;;5135926;27;20034;-76
2021/06/05 10:04:11;;;;;;;5.65;2.47;;;29.30;49.40;;;;;;5174525;27;20358;-77
2021/06/05 10:06:56;;;;;;;5.75;2.33;;;30.00;51.20;;;;;;5176357;27;20022;-76
2021/06/05 10:09:25;;;;;;;3.85;2.58;;;30.20;47.80;;;;;;5172062;27;20046;-74
2021/06/05 10:12:03;;;;;;;3.78;2.20;;;30.20;47.90;;;;;;5177598;27;20048;-77
2021/06/05 10:14:44;;;;;;;4.60;2.30;;;30.10;46.40;;;;;;5185887;27;20114;-76
2021/06/05 10:17:58;;;;;;;8.95;2.35;;;30.10;46.70;;;;;;5182992;27;20034;-76
2021/06/05 10:21:05;;;;;;;4.13;2.30;;;30.00;46.70;;;;;;5159615;27;20031;-76
2021/06/05 10:23:38;;;;;;;4.35;2.17;;;29.80;46.30;;;;;;5167356;27;20029;-77
2021/06/05 10:26:32;;;;;;;3.28;2.17;;;30.30;49.60;;;;;;5183828;27;20076;-76
2021/06/05 10:29:03;;;;;;;4.10;2.28;;;30.50;47.50;;;;;;5184838;27;20424;-75
2021/06/05 10:31:32;;;;;;;4.55;2.20;;;30.20;46.20;;;;;;5175263;27;20036;-76
2021/06/05 10:34:13;;;;;;;5.22;2.30;;;30.50;46.10;;;;;;5185065;27;20417;-76
2021/06/05 10:36:48;;;;;;;5.10;2.40;;;30.70;47.20;;;;;;5186001;27;20014;-76
2021/06/05 10:39:19;;;;;;;4.25;2.20;;;31.10;48.80;;;;;;5181630;27;20014;-77
2021/06/05 10:42:26;;;;;;;3.58;2.03;;;31.20;46.50;;;;;;5186548;27;20034;-76
2021/06/05 10:44:54;;;;;;;4.32;2.30;;;31.40;47.60;;;;;;5181390;27;20049;-77
2021/06/05 10:47:24;;;;;;;4.53;2.10;;;31.40;48.80;;;;;;5181568;27;20113;-77
2021/06/05 10:50:01;;;;;;;3.55;2.10;;;31.70;47.70;;;;;;5176962;27;20460;-77
2021/06/05 10:52:45;;;;;;;4.82;2.40;;;31.20;45.80;;;;;;5179698;27;20030;-78
2021/06/05 10:55:11;;;;;;;;;;;31.00;46.30;;;;;;5180562;27;20007;-77
2021/06/05 10:57:43;;;;;;;5.18;2.20;;;30.60;46.20;;;;;;5173870;27;19910;-77
2021/06/05 11:00:58;;;;;;;4.60;2.00;;;31.00;47.00;;;;;;5177342;27;20401;-77
2021/06/05 11:03:27;;;;;;;5.63;2.53;;;30.70;44.50;;;;;;5173218;27;20055;-76
2021/06/05 11:06:01;;;;;;;3.72;2.45;;;30.90;46.60;;;;;;5168506;27;20007;-76
2021/06/05 11:08:41;;;;;;;5.15;2.30;;;30.40;46.60;;;;;;5163544;27;20061;-77
2021/06/05 11:11:06;;;;;;;5.47;2.15;;;30.80;45.00;;;;;;5163405;27;20421;-76
2021/06/05 11:13:36;;;;;;;3.58;2.20;;;30.60;45.80;;;;;;5157587;27;20475;-76
2021/06/05 11:16:39;;;;;;;4.95;2.20;;;31.00;46.50;;;;;;5169601;27;20027;-77
2021/06/05 11:19:05;;;;;;;4.03;2.30;;;31.30;44.80;;;;;;5167051;27;20396;-78
2021/06/05 11:21:41;;;;;;;4.95;2.60;;;31.60;47.10;;;;;;5164502;27;20118;-77
2021/06/05 11:24:21;;;;;;;4.72;2.33;;;31.90;48.00;;;;;;5158016;27;20050;-76
2021/06/05 11:26:53;;;;;;;3.55;2.25;;;31.90;44.20;;;;;;5154688;27;20054;-77
2021/06/05 11:29:19;;;;;;;4.40;2.28;;;31.30;44.70;;;;;;5154714;27;20023;-77
2021/06/05 11:32:08;;;;;;;4.88;2.30;;;31.40;45.50;;;;;;5155692;27;20030;-76
2021/06/05 11:34:34;;;;;;;4.68;2.15;;;31.40;45.60;;;;;;5156504;27;20027;-77
2021/06/05 11:37:26;;;;;;;4.82;2.28;;;31.70;47.10;;;;;;5155349;27;20580;-77
2021/06/05 11:39:57;;;;;;;3.65;2.15;;;31.40;42.30;;;;;;5163559;27;20520;-77
2021/06/05 11:42:23;;;;;;;4.22;2.30;;;31.40;44.70;;;;;;5167829;27;20003;-77
2021/06/05 11:44:56;;;;;;;5.78;2.20;;;31.30;46.10;;;;;;5147746;27;20055;-77
2021/06/05 11:47:22;;;;;;;7.60;2.55;;;31.50;47.90;;;;;;5149583;27;20022;-77
2021/06/05 11:50:09;;;;;;;8.05;2.42;;;31.70;45.20;;;;;;5155439;27;20015;-77
2021/06/05 11:52:50;;;;;;;3.78;2.20;;;32.00;47.70;;;;;;5147418;27;20035;-76
2021/06/05 11:55:29;;;;;;;4.15;1.95;;;32.20;44.80;;;;;;5140848;27;20039;-77
2021/06/05 11:57:58;;;;;;;4.43;2.28;;;31.90;43.50;;;;;;5145668;27;20031;-77
2021/06/05 12:00:35;;;;;;;5.00;2.40;;;31.70;44.10;;;;;;5144094;27;20025;-77
2021/06/05 12:03:09;;;;;;;3.55;2.20;;;31.80;44.80;;;;;;5145237;27;20070;-77
2021/06/05 12:05:39;;;;;;;;;;;31.90;43.60;;;;;;5147490;27;20475;-77
2021/06/05 12:08:28;;;;;;;3.25;2.22;;;31.90;42.80;;;;;;5145560;27;20349;-77
2021/06/05 12:10:56;;;;;;;6.63;2.17;;;32.00;45.00;;;;;;5145053;27;20019;-77
2021/06/05 12:13:36;;;;;;;4.38;2.10;;;32.40;45.60;;;;;;5145572;27;20028;-77
2021/06/05 12:16:14;;;;;;;3.25;2.25;;;32.30;44.10;;;;;;5144149;27;20018;-76
2021/06/05 12:18:41;;;;;;;4.18;2.10;;;32.60;42.80;;;;;;5144347;27;20007;-77
2021/06/05 12:21:25;;;;;;;3.25;2.10;;;32.50;45.10;;;;;;5145810;27;20023;-77
2021/06/05 12:23:52;;;;;;;;;;;32.80;45.70;;;;;;5146203;27;20058;-77
2021/06/05 12:26:24;;;;;;;5.18;2.10;;;32.80;43.60;;;;;;5144930;27;19903;-77
2021/06/05 12:28:54;;;;;;;3.63;1.90;;;32.70;40.90;;;;;;5145300;27;20015;-77
2021/06/05 12:31:26;;;;;;;4.63;2.10;;;32.40;41.00;;;;;;5143561;27;20038;-77
2021/06/05 12:34:07;;;;;;;4.47;2.53;;;32.30;43.30;;;;;;5144054;27;20027;-76
2021/06/05 12:36:41;;;;;;;4.18;2.42;;;32.10;41.70;;;;;;5143647;27;20066;-77
2021/06/05 12:39:15;;;;;;;4.95;2.30;;;31.90;42.30;;;;;;5143865;27;20038;-77
2021/06/05 12:41:47;;;;;;;8.93;2.10;;;32.30;44.60;;;;;;5145111;27;20038;-77
2021/06/05 12:44:20;;;;;;;3.75;2.20;;;32.40;42.30;;;;;;5144318;27;20019;-77
2021/06/05 12:46:46;;;;;;;3.33;2.30;;;32.70;42.50;;;;;;5145365;27;19995;-77
2021/06/05 12:49:16;;;;;;;4.18;2.13;;;32.60;43.00;;;;;;5144704;27;20085;-77
2021/06/05 12:51:49;;;;;;;3.65;2.20;;;32.50;40.90;;;;;;5146489;27;20005;-77
2021/06/05 12:54:38;;;;;;;3.55;1.98;;;32.50;41.30;;;;;;5145934;27;20027;-78
2021/06/05 12:57:25;;;;;;;5.07;2.00;;;32.20;39.80;;;;;;5142520;27;20011;-78
2021/06/05 12:59:52;;;;;;;3.63;1.90;;;31.70;43.60;;;;;;5142628;27;20000;-79
2021/06/05 13:02:27;;;;;;;3.85;1.90;;;32.00;42.40;;;;;;5143431;27;20480;-80
2021/06/05 13:04:54;;;;;;;2.60;1.80;;;31.80;38.60;;;;;;5145844;27;20038;-79
2021/06/05 13:07:33;;;;;;;4.00;1.70;;;31.90;39.30;;;;;;5145359;27;20030;-79
2021/06/05 13:10:30;;;;;;;4.65;2.13;;;32.00;40.10;;;;;;5144186;27;20023;-75
2021/06/05 13:13:16;;;;;;;3.20;2.10;;;;;;;;;;5147530;27;20007;-76
2021/06/05 13:15:47;;;;;;;4.35;2.10;;;32.40;42.60;;;;;;5137371;27;20027;-76
2021/06/05 13:18:25;;;;;;;5.03;2.28;;;32.40;44.90;;;;;;5146834;27;20029;-77
2021/06/05 13:21:25;;;;;;;4.35;2.50;;;32.50;44.60;;;;;;5143819;27;20007;-76
2021/06/05 13:24:16;;;;;;;5.10;2.30;;;32.60;41.60;;;;;;5143641;27;20037;-77
2021/06/05 13:26:47;;;;;;;4.45;2.22;;;32.20;40.10;;;;;;5144838;27;20031;-76
2021/06/05 13:29:30;;;;;;;5.53;2.03;;;31.70;39.60;;;;;;5143983;27;20023;-76
2021/06/05 13:32:04;;;;;;;5.97;2.10;;;31.60;41.90;;;;;;5145101;27;20023;-75
2021/06/05 13:34:38;;;;;;;6.18;2.08;;;31.40;40.10;;;;;;5142071;27;20495;-78
2021/06/05 13:37:15;;;;;;;4.60;2.30;;;30.90;41.10;;;;;;5145436;27;20051;-78
2021/06/05 13:39:41;;;;;;;16.70;3.10;;;31.20;42.00;;;;;;5143935;27;20018;-77
2021/06/05 13:42:08;;;;;;;4.75;2.00;;;31.40;42.90;;;;;;5142776;27;20019;-77
2021/06/05 13:44:34;;;;;;;3.78;2.20;;;31.40;43.30;;;;;;5142576;27;20368;-79
2021/06/05 13:47:00;;;;;;;5.38;3.40;;;31.20;41.50;;;;;;5138363;27;20000;-79
2021/06/05 13:49:26;;;;;;;8.10;5.60;;;31.30;44.80;;;;;;5138247;27;20103;-78
2021/06/05 13:51:51;;;;;;;10.55;9.27;;;31.60;43.50;;;;;;5138069;27;20023;-78
2021/06/05 13:54:18;;;;;;;3.03;2.10;;;31.50;41.70;;;;;;5142499;28;20058;-78
2021/06/05 13:56:44;;;;;;;4.32;2.00;;;31.00;41.10;;;;;;5142949;27;20030;-78
2021/06/05 13:59:10;;;;;;;5.70;2.20;;;30.90;42.60;;;;;;5141337;27;20011;-82
2021/06/05 14:01:36;;;;;;;4.38;2.25;;;31.00;43.00;;;;;;5143380;27;20589;-77
2021/06/05 14:04:04;;;;;;;4.80;2.33;;;30.80;41.10;;;;;;5142897;28;20053;-79
2021/06/05 14:06:31;;;;;;;5.47;2.00;;;30.80;41.60;;;;;;5136978;27;20031;-75
2021/06/05 14:08:57;;;;;;;4.53;1.95;;;30.80;41.10;;;;;;5137822;27;20023;-76
2021/06/05 14:11:24;;;;;;;3.75;1.90;;;30.80;44.80;;;;;;5138926;27;20023;-79
2021/06/05 14:13:53;;;;;;;4.38;2.05;;;30.70;42.00;;;;;;5138392;27;20019;-78
2021/06/05 14:16:20;;;;;;;4.57;1.98;;;30.60;43.50;;;;;;5138248;27;20107;-78
2021/06/05 14:18:48;;;;;;;5.32;2.30;;;30.40;42.20;;;;;;5140431;27;20023;-78
2021/06/05 14:21:14;;;;;;;4.03;2.10;;;30.20;42.60;;;;;;5138736;28;20047;-78
2021/06/05 14:23:41;;;;;;;3.13;2.03;;;30.20;43.90;;;;;;5137475;28;20384;-78
2021/06/05 14:26:09;;;;;;;4.00;2.10;;;30.20;44.20;;;;;;5135948;28;20031;-78
2021/06/05 14:28:41;;;;;;;6.95;2.47;;;30.20;43.70;;;;;;5145646;27;20071;-78